sensor_id;sensor_type;location;lat;lon;timestamp;P1;durP1;ratioP1;P2;durP2;ratioP2
25107;SDS011;13090;53.422;7.670;2023-05-07T00:00:20;33.70;;;18.40;;
25107;SDS011;13090;53.422;7.670;2023-05-07T00:05:22;33.17;;;21.83;;
25107;SDS011;13090;53.422;7.670;2023-05-07T00:10:26;33.15;;;19.65;;
25107;SDS011;13090;53.422;7.670;2023-05-07T00:15:28;30.60;;;19.20;;
25107;SDS011;13090;53.422;7.670;2023-05-07T00:20:31;41.55;;;24.48;;
25107;SDS011;13090;53.422;7.670;2023-05-07T00:25:37;35.15;;;21.52;;
25107;SDS011;13090;53.422;7.670;2023-05-07T00:30:39;37.03;;;22.80;;
25107;SDS011;13090;53.422;7.670;2023-05-07T00:35:41;40.50;;;23.98;;
25107;SDS011;13090;53.422;7.670;2023-05-07T00:40:46;43.88;;;22.30;;
25107;SDS011;13090;53.422;7.670;2023-05-07T00:45:48;37.35;;;20.83;;
25107;SDS011;13090;53.422;7.670;2023-05-07T00:50:51;33.20;;;21.17;;
25107;SDS011;13090;53.422;7.670;2023-05-07T00:55:55;39.78;;;24.02;;
25107;SDS011;13090;53.422;7.670;2023-05-07T01:00:57;36.80;;;22.23;;
25107;SDS011;13090;53.422;7.670;2023-05-07T01:06:00;34.42;;;19.20;;
25107;SDS011;13090;53.422;7.670;2023-05-07T01:11:05;38.30;;;21.10;;
25107;SDS011;13090;53.422;7.670;2023-05-07T01:16:08;35.50;;;23.00;;
25107;SDS011;13090;53.422;7.670;2023-05-07T01:21:11;44.97;;;24.70;;
25107;SDS011;13090;53.422;7.670;2023-05-07T01:26:15;40.92;;;23.95;;
25107;SDS011;13090;53.422;7.670;2023-05-07T01:31:17;41.90;;;24.08;;
25107;SDS011;13090;53.422;7.670;2023-05-07T01:36:20;41.83;;;23.98;;
25107;SDS011;13090;53.422;7.670;2023-05-07T01:41:25;39.97;;;23.30;;
25107;SDS011;13090;53.422;7.670;2023-05-07T01:46:28;37.67;;;23.65;;
25107;SDS011;13090;53.422;7.670;2023-05-07T01:51:31;41.15;;;22.13;;
25107;SDS011;13090;53.422;7.670;2023-05-07T01:56:35;36.58;;;23.00;;
25107;SDS011;13090;53.422;7.670;2023-05-07T02:01:38;30.50;;;19.77;;
25107;SDS011;13090;53.422;7.670;2023-05-07T02:06:40;33.72;;;21.05;;
25107;SDS011;13090;53.422;7.670;2023-05-07T02:11:43;36.83;;;23.52;;
25107;SDS011;13090;53.422;7.670;2023-05-07T02:16:46;41.97;;;25.08;;
25107;SDS011;13090;53.422;7.670;2023-05-07T02:21:48;36.10;;;23.55;;
25107;SDS011;13090;53.422;7.670;2023-05-07T02:26:51;41.20;;;26.30;;
25107;SDS011;13090;53.422;7.670;2023-05-07T02:31:54;31.98;;;22.30;;
25107;SDS011;13090;53.422;7.670;2023-05-07T02:36:56;37.88;;;25.00;;
25107;SDS011;13090;53.422;7.670;2023-05-07T02:41:59;37.42;;;26.30;;
25107;SDS011;13090;53.422;7.670;2023-05-07T02:47:01;39.65;;;27.70;;
25107;SDS011;13090;53.422;7.670;2023-05-07T02:52:04;38.70;;;24.60;;
25107;SDS011;13090;53.422;7.670;2023-05-07T02:57:08;40.40;;;24.67;;
25107;SDS011;13090;53.422;7.670;2023-05-07T03:02:10;39.85;;;25.73;;
25107;SDS011;13090;53.422;7.670;2023-05-07T03:07:12;35.60;;;22.05;;
25107;SDS011;13090;53.422;7.670;2023-05-07T03:12:16;35.58;;;24.98;;
25107;SDS011;13090;53.422;7.670;2023-05-07T03:17:18;32.55;;;22.45;;
25107;SDS011;13090;53.422;7.670;2023-05-07T03:22:20;34.65;;;22.25;;
25107;SDS011;13090;53.422;7.670;2023-05-07T03:27:24;32.65;;;22.38;;
25107;SDS011;13090;53.422;7.670;2023-05-07T03:32:26;34.67;;;23.85;;
25107;SDS011;13090;53.422;7.670;2023-05-07T03:37:28;39.70;;;25.60;;
25107;SDS011;13090;53.422;7.670;2023-05-07T03:42:32;35.05;;;25.15;;
25107;SDS011;13090;53.422;7.670;2023-05-07T03:47:34;36.42;;;25.83;;
25107;SDS011;13090;53.422;7.670;2023-05-07T03:52:36;40.97;;;25.42;;
25107;SDS011;13090;53.422;7.670;2023-05-07T03:57:39;37.63;;;25.60;;
25107;SDS011;13090;53.422;7.670;2023-05-07T04:02:42;28.25;;;18.15;;
25107;SDS011;13090;53.422;7.670;2023-05-07T04:07:44;41.70;;;28.90;;
25107;SDS011;13090;53.422;7.670;2023-05-07T04:12:48;36.67;;;25.48;;
25107;SDS011;13090;53.422;7.670;2023-05-07T04:17:50;35.03;;;23.70;;
25107;SDS011;13090;53.422;7.670;2023-05-07T04:22:52;46.15;;;30.52;;
25107;SDS011;13090;53.422;7.670;2023-05-07T04:27:56;38.53;;;24.48;;
25107;SDS011;13090;53.422;7.670;2023-05-07T04:32:58;43.67;;;27.80;;
25107;SDS011;13090;53.422;7.670;2023-05-07T04:38:01;39.65;;;26.75;;
25107;SDS011;13090;53.422;7.670;2023-05-07T04:43:04;52.97;;;32.72;;
25107;SDS011;13090;53.422;7.670;2023-05-07T04:48:08;42.92;;;27.85;;
25107;SDS011;13090;53.422;7.670;2023-05-07T04:53:11;43.17;;;28.80;;
25107;SDS011;13090;53.422;7.670;2023-05-07T04:58:15;47.03;;;29.92;;
25107;SDS011;13090;53.422;7.670;2023-05-07T05:03:17;35.42;;;24.38;;
25107;SDS011;13090;53.422;7.670;2023-05-07T05:08:19;34.50;;;25.17;;
25107;SDS011;13090;53.422;7.670;2023-05-07T05:13:23;32.00;;;20.70;;
25107;SDS011;13090;53.422;7.670;2023-05-07T05:18:25;38.65;;;23.65;;
25107;SDS011;13090;53.422;7.670;2023-05-07T05:23:27;38.78;;;23.90;;
25107;SDS011;13090;53.422;7.670;2023-05-07T05:28:31;43.83;;;25.17;;
25107;SDS011;13090;53.422;7.670;2023-05-07T05:33:33;43.45;;;28.05;;
25107;SDS011;13090;53.422;7.670;2023-05-07T05:38:35;33.97;;;21.63;;
25107;SDS011;13090;53.422;7.670;2023-05-07T05:43:39;35.28;;;23.70;;
25107;SDS011;13090;53.422;7.670;2023-05-07T05:48:41;35.30;;;22.13;;
25107;SDS011;13090;53.422;7.670;2023-05-07T05:53:43;32.42;;;22.23;;
25107;SDS011;13090;53.422;7.670;2023-05-07T05:58:47;27.15;;;18.42;;
25107;SDS011;13090;53.422;7.670;2023-05-07T06:03:49;35.20;;;22.25;;
25107;SDS011;13090;53.422;7.670;2023-05-07T06:08:51;35.15;;;23.30;;
25107;SDS011;13090;53.422;7.670;2023-05-07T06:13:55;46.13;;;24.02;;
25107;SDS011;13090;53.422;7.670;2023-05-07T06:18:57;33.95;;;22.90;;
25107;SDS011;13090;53.422;7.670;2023-05-07T06:24:00;32.05;;;20.25;;
25107;SDS011;13090;53.422;7.670;2023-05-07T06:29:03;34.13;;;21.85;;
25107;SDS011;13090;53.422;7.670;2023-05-07T06:34:05;27.88;;;17.98;;
25107;SDS011;13090;53.422;7.670;2023-05-07T06:39:08;29.45;;;20.52;;
25107;SDS011;13090;53.422;7.670;2023-05-07T06:44:12;31.50;;;19.63;;
25107;SDS011;13090;53.422;7.670;2023-05-07T06:49:14;25.55;;;17.48;;
25107;SDS011;13090;53.422;7.670;2023-05-07T06:54:16;24.73;;;17.02;;
25107;SDS011;13090;53.422;7.670;2023-05-07T06:59:20;28.65;;;17.60;;
25107;SDS011;13090;53.422;7.670;2023-05-07T07:04:22;30.65;;;17.02;;
25107;SDS011;13090;53.422;7.670;2023-05-07T07:09:24;26.63;;;18.10;;
25107;SDS011;13090;53.422;7.670;2023-05-07T07:14:28;26.33;;;18.20;;
25107;SDS011;13090;53.422;7.670;2023-05-07T07:19:30;24.27;;;16.00;;
25107;SDS011;13090;53.422;7.670;2023-05-07T07:24:32;24.02;;;17.65;;
25107;SDS011;13090;53.422;7.670;2023-05-07T07:29:36;24.50;;;16.90;;
25107;SDS011;13090;53.422;7.670;2023-05-07T07:34:38;24.65;;;17.15;;
25107;SDS011;13090;53.422;7.670;2023-05-07T07:39:40;24.15;;;16.13;;
25107;SDS011;13090;53.422;7.670;2023-05-07T07:44:44;22.33;;;15.65;;
25107;SDS011;13090;53.422;7.670;2023-05-07T07:49:47;27.17;;;18.40;;
25107;SDS011;13090;53.422;7.670;2023-05-07T07:54:50;29.38;;;21.00;;
25107;SDS011;13090;53.422;7.670;2023-05-07T07:59:53;33.50;;;23.60;;
25107;SDS011;13090;53.422;7.670;2023-05-07T08:04:55;31.17;;;20.95;;
25107;SDS011;13090;53.422;7.670;2023-05-07T08:09:57;28.50;;;21.08;;
25107;SDS011;13090;53.422;7.670;2023-05-07T08:15:01;29.75;;;21.38;;
25107;SDS011;13090;53.422;7.670;2023-05-07T08:20:04;25.65;;;19.60;;
25107;SDS011;13090;53.422;7.670;2023-05-07T08:25:08;23.65;;;18.20;;
25107;SDS011;13090;53.422;7.670;2023-05-07T08:30:21;20.85;;;15.43;;
25107;SDS011;13090;53.422;7.670;2023-05-07T08:35:43;19.45;;;14.55;;
25107;SDS011;13090;53.422;7.670;2023-05-07T08:41:01;20.13;;;15.57;;
25107;SDS011;13090;53.422;7.670;2023-05-07T08:46:13;22.08;;;15.40;;
25107;SDS011;13090;53.422;7.670;2023-05-07T08:51:30;19.40;;;16.05;;
25107;SDS011;13090;53.422;7.670;2023-05-07T08:56:33;18.40;;;14.73;;
25107;SDS011;13090;53.422;7.670;2023-05-07T09:01:36;18.75;;;14.57;;
25107;SDS011;13090;53.422;7.670;2023-05-07T09:06:39;18.00;;;15.15;;
25107;SDS011;13090;53.422;7.670;2023-05-07T09:11:41;17.80;;;13.25;;
25107;SDS011;13090;53.422;7.670;2023-05-07T09:16:45;16.60;;;13.98;;
25107;SDS011;13090;53.422;7.670;2023-05-07T09:21:48;17.23;;;15.27;;
25107;SDS011;13090;53.422;7.670;2023-05-07T09:26:50;19.98;;;15.13;;
25107;SDS011;13090;53.422;7.670;2023-05-07T09:31:54;16.25;;;14.13;;
25107;SDS011;13090;53.422;7.670;2023-05-07T09:36:57;14.75;;;12.77;;
25107;SDS011;13090;53.422;7.670;2023-05-07T09:42:00;14.25;;;12.07;;
25107;SDS011;13090;53.422;7.670;2023-05-07T09:47:04;16.77;;;12.40;;
25107;SDS011;13090;53.422;7.670;2023-05-07T09:52:08;15.35;;;13.27;;
25107;SDS011;13090;53.422;7.670;2023-05-07T09:57:13;14.05;;;12.55;;
25107;SDS011;13090;53.422;7.670;2023-05-07T10:02:23;11.07;;;9.50;;
25107;SDS011;13090;53.422;7.670;2023-05-07T10:07:30;12.73;;;10.63;;
25107;SDS011;13090;53.422;7.670;2023-05-07T10:12:33;14.05;;;12.43;;
25107;SDS011;13090;53.422;7.670;2023-05-07T10:17:37;15.20;;;12.82;;
25107;SDS011;13090;53.422;7.670;2023-05-07T10:22:41;14.07;;;11.55;;
25107;SDS011;13090;53.422;7.670;2023-05-07T10:27:45;14.35;;;12.48;;
25107;SDS011;13090;53.422;7.670;2023-05-07T10:32:53;13.50;;;11.15;;
25107;SDS011;13090;53.422;7.670;2023-05-07T10:37:57;12.45;;;10.82;;
25107;SDS011;13090;53.422;7.670;2023-05-07T10:43:00;13.65;;;11.93;;
25107;SDS011;13090;53.422;7.670;2023-05-07T10:48:08;11.48;;;9.88;;
25107;SDS011;13090;53.422;7.670;2023-05-07T10:53:28;10.80;;;9.70;;
25107;SDS011;13090;53.422;7.670;2023-05-07T10:58:30;13.90;;;10.48;;
25107;SDS011;13090;53.422;7.670;2023-05-07T11:03:34;10.73;;;9.63;;
25107;SDS011;13090;53.422;7.670;2023-05-07T11:08:52;10.68;;;9.43;;
25107;SDS011;13090;53.422;7.670;2023-05-07T11:13:55;10.15;;;9.10;;
25107;SDS011;13090;53.422;7.670;2023-05-07T11:18:59;11.50;;;8.35;;
25107;SDS011;13090;53.422;7.670;2023-05-07T11:24:01;7.20;;;6.47;;
25107;SDS011;13090;53.422;7.670;2023-05-07T11:29:04;10.48;;;8.63;;
25107;SDS011;13090;53.422;7.670;2023-05-07T11:34:14;9.07;;;8.05;;
25107;SDS011;13090;53.422;7.670;2023-05-07T11:39:28;9.38;;;8.38;;
25107;SDS011;13090;53.422;7.670;2023-05-07T11:44:41;8.43;;;7.43;;
25107;SDS011;13090;53.422;7.670;2023-05-07T11:49:45;10.25;;;9.05;;
25107;SDS011;13090;53.422;7.670;2023-05-07T11:54:49;8.48;;;7.40;;
25107;SDS011;13090;53.422;7.670;2023-05-07T11:59:52;9.60;;;7.72;;
25107;SDS011;13090;53.422;7.670;2023-05-07T12:04:56;10.02;;;9.02;;
25107;SDS011;13090;53.422;7.670;2023-05-07T12:10:04;11.48;;;9.75;;
25107;SDS011;13090;53.422;7.670;2023-05-07T12:15:07;10.38;;;8.75;;
25107;SDS011;13090;53.422;7.670;2023-05-07T12:20:12;10.65;;;8.88;;
25107;SDS011;13090;53.422;7.670;2023-05-07T12:25:14;8.75;;;7.85;;
25107;SDS011;13090;53.422;7.670;2023-05-07T12:30:21;10.15;;;8.27;;
25107;SDS011;13090;53.422;7.670;2023-05-07T12:35:28;13.00;;;11.32;;
25107;SDS011;13090;53.422;7.670;2023-05-07T12:40:37;10.60;;;9.25;;
25107;SDS011;13090;53.422;7.670;2023-05-07T12:45:41;9.65;;;8.63;;
25107;SDS011;13090;53.422;7.670;2023-05-07T12:50:46;8.93;;;7.10;;
25107;SDS011;13090;53.422;7.670;2023-05-07T12:55:51;10.13;;;8.47;;
25107;SDS011;13090;53.422;7.670;2023-05-07T13:00:55;10.40;;;9.30;;
25107;SDS011;13090;53.422;7.670;2023-05-07T13:06:00;9.32;;;8.13;;
25107;SDS011;13090;53.422;7.670;2023-05-07T13:11:04;12.90;;;9.95;;
25107;SDS011;13090;53.422;7.670;2023-05-07T13:16:09;9.90;;;8.15;;
25107;SDS011;13090;53.422;7.670;2023-05-07T13:21:14;10.55;;;9.43;;
25107;SDS011;13090;53.422;7.670;2023-05-07T13:26:16;11.50;;;8.80;;
25107;SDS011;13090;53.422;7.670;2023-05-07T13:31:27;12.55;;;10.52;;
25107;SDS011;13090;53.422;7.670;2023-05-07T13:36:31;12.02;;;9.60;;
25107;SDS011;13090;53.422;7.670;2023-05-07T13:41:33;11.93;;;10.63;;
25107;SDS011;13090;53.422;7.670;2023-05-07T13:46:35;10.55;;;9.30;;
25107;SDS011;13090;53.422;7.670;2023-05-07T13:51:39;15.38;;;8.60;;
25107;SDS011;13090;53.422;7.670;2023-05-07T13:56:41;8.40;;;7.55;;
25107;SDS011;13090;53.422;7.670;2023-05-07T14:01:43;10.45;;;8.35;;
25107;SDS011;13090;53.422;7.670;2023-05-07T14:06:47;12.98;;;10.65;;
25107;SDS011;13090;53.422;7.670;2023-05-07T14:11:49;10.25;;;9.20;;
25107;SDS011;13090;53.422;7.670;2023-05-07T14:16:51;12.70;;;11.32;;
25107;SDS011;13090;53.422;7.670;2023-05-07T14:21:55;10.98;;;9.88;;
25107;SDS011;13090;53.422;7.670;2023-05-07T14:26:59;11.80;;;10.15;;
25107;SDS011;13090;53.422;7.670;2023-05-07T14:32:02;10.38;;;9.27;;
25107;SDS011;13090;53.422;7.670;2023-05-07T14:37:05;9.85;;;8.80;;
25107;SDS011;13090;53.422;7.670;2023-05-07T14:42:07;9.15;;;7.90;;
25107;SDS011;13090;53.422;7.670;2023-05-07T14:47:10;10.63;;;9.30;;
25107;SDS011;13090;53.422;7.670;2023-05-07T14:52:20;11.23;;;8.95;;
25107;SDS011;13090;53.422;7.670;2023-05-07T14:57:26;11.80;;;8.95;;
25107;SDS011;13090;53.422;7.670;2023-05-07T15:02:35;9.80;;;8.73;;
25107;SDS011;13090;53.422;7.670;2023-05-07T15:07:44;10.25;;;8.77;;
25107;SDS011;13090;53.422;7.670;2023-05-07T15:12:48;9.73;;;8.73;;
25107;SDS011;13090;53.422;7.670;2023-05-07T15:17:50;9.95;;;7.10;;
25107;SDS011;13090;53.422;7.670;2023-05-07T15:22:54;8.38;;;7.05;;
25107;SDS011;13090;53.422;7.670;2023-05-07T15:27:56;10.38;;;8.98;;
25107;SDS011;13090;53.422;7.670;2023-05-07T15:32:59;9.30;;;6.85;;
25107;SDS011;13090;53.422;7.670;2023-05-07T15:38:06;11.10;;;7.28;;
25107;SDS011;13090;53.422;7.670;2023-05-07T15:43:08;8.15;;;6.68;;
25107;SDS011;13090;53.422;7.670;2023-05-07T15:48:11;7.30;;;6.60;;
25107;SDS011;13090;53.422;7.670;2023-05-07T15:53:14;8.63;;;6.50;;
25107;SDS011;13090;53.422;7.670;2023-05-07T15:58:16;7.35;;;6.65;;
25107;SDS011;13090;53.422;7.670;2023-05-07T16:03:19;8.32;;;7.47;;
25107;SDS011;13090;53.422;7.670;2023-05-07T16:08:22;6.32;;;5.72;;
25107;SDS011;13090;53.422;7.670;2023-05-07T16:13:25;6.18;;;5.57;;
25107;SDS011;13090;53.422;7.670;2023-05-07T16:18:29;8.75;;;5.40;;
25107;SDS011;13090;53.422;7.670;2023-05-07T16:23:44;5.65;;;4.90;;
25107;SDS011;13090;53.422;7.670;2023-05-07T16:28:46;7.20;;;5.75;;
25107;SDS011;13090;53.422;7.670;2023-05-07T16:33:49;7.57;;;5.38;;
25107;SDS011;13090;53.422;7.670;2023-05-07T16:38:53;5.80;;;5.30;;
25107;SDS011;13090;53.422;7.670;2023-05-07T16:43:55;6.07;;;5.47;;
25107;SDS011;13090;53.422;7.670;2023-05-07T16:48:57;9.25;;;6.13;;
25107;SDS011;13090;53.422;7.670;2023-05-07T16:54:01;6.10;;;5.25;;
25107;SDS011;13090;53.422;7.670;2023-05-07T16:59:05;8.02;;;6.07;;
25107;SDS011;13090;53.422;7.670;2023-05-07T17:04:07;6.18;;;5.40;;
25107;SDS011;13090;53.422;7.670;2023-05-07T17:09:11;8.02;;;6.22;;
25107;SDS011;13090;53.422;7.670;2023-05-07T17:14:13;6.68;;;5.90;;
25107;SDS011;13090;53.422;7.670;2023-05-07T17:19:15;8.55;;;5.78;;
25107;SDS011;13090;53.422;7.670;2023-05-07T17:24:19;8.55;;;6.03;;
25107;SDS011;13090;53.422;7.670;2023-05-07T17:29:21;9.70;;;6.70;;
25107;SDS011;13090;53.422;7.670;2023-05-07T17:34:23;7.40;;;6.70;;
25107;SDS011;13090;53.422;7.670;2023-05-07T17:39:28;8.20;;;6.90;;
25107;SDS011;13090;53.422;7.670;2023-05-07T17:44:31;8.05;;;6.30;;
25107;SDS011;13090;53.422;7.670;2023-05-07T17:49:33;8.88;;;6.78;;
25107;SDS011;13090;53.422;7.670;2023-05-07T17:54:37;7.10;;;6.38;;
25107;SDS011;13090;53.422;7.670;2023-05-07T17:59:39;7.28;;;6.57;;
25107;SDS011;13090;53.422;7.670;2023-05-07T18:04:42;6.05;;;5.45;;
25107;SDS011;13090;53.422;7.670;2023-05-07T18:09:46;8.75;;;6.15;;
25107;SDS011;13090;53.422;7.670;2023-05-07T18:14:49;7.45;;;6.15;;
25107;SDS011;13090;53.422;7.670;2023-05-07T18:19:51;7.78;;;5.35;;
25107;SDS011;13090;53.422;7.670;2023-05-07T18:24:57;7.30;;;6.28;;
25107;SDS011;13090;53.422;7.670;2023-05-07T18:29:59;6.25;;;5.65;;
25107;SDS011;13090;53.422;7.670;2023-05-07T18:35:01;7.55;;;6.18;;
25107;SDS011;13090;53.422;7.670;2023-05-07T18:40:07;7.18;;;6.47;;
25107;SDS011;13090;53.422;7.670;2023-05-07T18:45:11;5.90;;;5.30;;
25107;SDS011;13090;53.422;7.670;2023-05-07T18:50:13;6.22;;;5.25;;
25107;SDS011;13090;53.422;7.670;2023-05-07T18:55:17;8.27;;;5.82;;
25107;SDS011;13090;53.422;7.670;2023-05-07T19:00:20;5.88;;;5.28;;
25107;SDS011;13090;53.422;7.670;2023-05-07T19:05:22;10.07;;;6.65;;
25107;SDS011;13090;53.422;7.670;2023-05-07T19:10:25;6.50;;;5.75;;
25107;SDS011;13090;53.422;7.670;2023-05-07T19:15:28;9.02;;;5.95;;
25107;SDS011;13090;53.422;7.670;2023-05-07T19:20:30;6.40;;;5.80;;
25107;SDS011;13090;53.422;7.670;2023-05-07T19:25:34;8.63;;;5.72;;
25107;SDS011;13090;53.422;7.670;2023-05-07T19:30:37;6.28;;;5.68;;
25107;SDS011;13090;53.422;7.670;2023-05-07T19:35:39;6.38;;;5.30;;
25107;SDS011;13090;53.422;7.670;2023-05-07T19:40:43;5.82;;;5.07;;
25107;SDS011;13090;53.422;7.670;2023-05-07T19:45:45;6.03;;;5.05;;
25107;SDS011;13090;53.422;7.670;2023-05-07T19:50:47;6.25;;;4.75;;
25107;SDS011;13090;53.422;7.670;2023-05-07T19:55:52;5.22;;;4.55;;
25107;SDS011;13090;53.422;7.670;2023-05-07T20:01:03;6.72;;;5.40;;
25107;SDS011;13090;53.422;7.670;2023-05-07T20:06:05;5.15;;;4.50;;
25107;SDS011;13090;53.422;7.670;2023-05-07T20:11:09;5.32;;;4.78;;
25107;SDS011;13090;53.422;7.670;2023-05-07T20:16:11;7.85;;;4.20;;
25107;SDS011;13090;53.422;7.670;2023-05-07T20:21:14;6.70;;;4.45;;
25107;SDS011;13090;53.422;7.670;2023-05-07T20:26:18;4.90;;;4.30;;
25107;SDS011;13090;53.422;7.670;2023-05-07T20:31:21;6.38;;;4.70;;
25107;SDS011;13090;53.422;7.670;2023-05-07T20:36:23;5.07;;;4.50;;
25107;SDS011;13090;53.422;7.670;2023-05-07T20:41:29;5.70;;;5.03;;
25107;SDS011;13090;53.422;7.670;2023-05-07T20:46:33;5.13;;;4.55;;
25107;SDS011;13090;53.422;7.670;2023-05-07T20:51:35;9.10;;;5.45;;
25107;SDS011;13090;53.422;7.670;2023-05-07T20:56:39;5.30;;;4.80;;
25107;SDS011;13090;53.422;7.670;2023-05-07T21:01:41;6.72;;;5.78;;
25107;SDS011;13090;53.422;7.670;2023-05-07T21:06:43;6.05;;;5.00;;
25107;SDS011;13090;53.422;7.670;2023-05-07T21:11:47;5.35;;;4.82;;
25107;SDS011;13090;53.422;7.670;2023-05-07T21:16:49;6.80;;;5.65;;
25107;SDS011;13090;53.422;7.670;2023-05-07T21:21:52;6.95;;;5.85;;
25107;SDS011;13090;53.422;7.670;2023-05-07T21:26:55;6.68;;;5.22;;
25107;SDS011;13090;53.422;7.670;2023-05-07T21:31:58;7.03;;;5.32;;
25107;SDS011;13090;53.422;7.670;2023-05-07T21:37:00;5.82;;;5.13;;
25107;SDS011;13090;53.422;7.670;2023-05-07T21:42:04;6.57;;;5.57;;
25107;SDS011;13090;53.422;7.670;2023-05-07T21:47:06;6.10;;;5.50;;
25107;SDS011;13090;53.422;7.670;2023-05-07T21:52:10;5.55;;;5.00;;
25107;SDS011;13090;53.422;7.670;2023-05-07T21:57:14;7.85;;;5.32;;
25107;SDS011;13090;53.422;7.670;2023-05-07T22:02:16;6.38;;;5.20;;
25107;SDS011;13090;53.422;7.670;2023-05-07T22:07:18;7.53;;;6.10;;
25107;SDS011;13090;53.422;7.670;2023-05-07T22:12:22;6.43;;;5.38;;
25107;SDS011;13090;53.422;7.670;2023-05-07T22:17:24;6.00;;;5.40;;
25107;SDS011;13090;53.422;7.670;2023-05-07T22:22:26;5.38;;;4.88;;
25107;SDS011;13090;53.422;7.670;2023-05-07T22:27:32;5.88;;;5.28;;
25107;SDS011;13090;53.422;7.670;2023-05-07T22:32:35;5.50;;;4.83;;
25107;SDS011;13090;53.422;7.670;2023-05-07T22:37:37;6.43;;;5.15;;
25107;SDS011;13090;53.422;7.670;2023-05-07T22:42:41;5.70;;;5.10;;
25107;SDS011;13090;53.422;7.670;2023-05-07T22:47:43;6.57;;;4.85;;
25107;SDS011;13090;53.422;7.670;2023-05-07T22:52:45;5.85;;;5.15;;
25107;SDS011;13090;53.422;7.670;2023-05-07T22:57:50;4.85;;;4.35;;
25107;SDS011;13090;53.422;7.670;2023-05-07T23:02:52;5.80;;;5.10;;
25107;SDS011;13090;53.422;7.670;2023-05-07T23:07:55;5.13;;;4.63;;
25107;SDS011;13090;53.422;7.670;2023-05-07T23:12:58;5.97;;;4.65;;
25107;SDS011;13090;53.422;7.670;2023-05-07T23:18:01;6.38;;;4.63;;
25107;SDS011;13090;53.422;7.670;2023-05-07T23:23:03;8.80;;;4.72;;
25107;SDS011;13090;53.422;7.670;2023-05-07T23:28:08;4.93;;;4.10;;
25107;SDS011;13090;53.422;7.670;2023-05-07T23:33:10;5.10;;;4.60;;
25107;SDS011;13090;53.422;7.670;2023-05-07T23:43:24;6.40;;;4.45;;
25107;SDS011;13090;53.422;7.670;2023-05-07T23:48:26;4.85;;;4.35;;
25107;SDS011;13090;53.422;7.670;2023-05-07T23:53:28;5.32;;;4.78;;
25107;SDS011;13090;53.422;7.670;2023-05-07T23:58:32;5.47;;;4.82;;
